createdAt,value
2022-08-16T00:00:21.949Z,932.18
2022-08-16T00:01:13.271Z,932.17
2022-08-16T00:02:13.465Z,932.18
2022-08-16T00:03:14.910Z,932.20
2022-08-16T00:04:13.403Z,932.17
2022-08-16T00:05:13.329Z,932.22
2022-08-16T00:06:13.347Z,932.20
2022-08-16T00:07:13.361Z,932.24
2022-08-16T00:08:36.200Z,932.26
2022-08-16T00:09:13.475Z,932.30
2022-08-16T00:10:20.682Z,932.32
2022-08-16T00:11:15.435Z,932.33
2022-08-16T00:12:18.003Z,932.31
2022-08-16T00:13:13.454Z,932.27
2022-08-16T00:14:13.461Z,932.26
2022-08-16T00:15:13.477Z,932.29
2022-08-16T00:17:00.515Z,932.25
2022-08-16T00:17:18.767Z,932.24
2022-08-16T00:18:16.878Z,932.24
2022-08-16T00:19:13.975Z,932.29
2022-08-16T00:20:13.553Z,932.30
2022-08-16T00:21:13.971Z,932.32
2022-08-16T00:22:15.316Z,932.30
2022-08-16T00:23:13.595Z,932.31
2022-08-16T00:24:13.614Z,932.34
2022-08-16T00:25:13.624Z,932.36
2022-08-16T00:26:35.769Z,932.38
2022-08-16T00:27:13.654Z,932.35
2022-08-16T00:28:13.669Z,932.37
2022-08-16T00:29:15.786Z,932.31
2022-08-16T00:30:28.495Z,932.35
2022-08-16T00:31:13.712Z,932.37
2022-08-16T00:32:13.728Z,932.37
2022-08-16T00:33:13.742Z,932.39
2022-08-16T00:34:18.458Z,932.41
2022-08-16T00:35:15.068Z,932.43
2022-08-16T00:36:13.787Z,932.41
2022-08-16T00:37:17.116Z,932.40
2022-08-16T00:38:40.601Z,932.35
2022-08-16T00:39:15.421Z,932.34
2022-08-16T00:40:33.347Z,932.33
2022-08-16T00:41:13.859Z,932.39
2022-08-16T00:42:13.893Z,932.38
2022-08-16T00:43:19.012Z,932.40
2022-08-16T00:44:13.903Z,932.38
2022-08-16T00:45:13.921Z,932.44
2022-08-16T00:46:32.989Z,932.42
2022-08-16T00:47:13.950Z,932.42
2022-08-16T00:48:28.990Z,932.44
2022-08-16T00:49:18.976Z,932.48
2022-08-16T00:50:13.996Z,932.45
2022-08-16T00:51:16.111Z,932.43
2022-08-16T00:52:29.746Z,932.47
2022-08-16T00:53:14.036Z,932.48
2022-08-16T00:54:14.053Z,932.43
2022-08-16T00:55:14.068Z,932.45
2022-08-16T00:56:56.617Z,932.49
2022-08-16T00:57:14.096Z,932.49
2022-08-16T00:58:16.266Z,932.48
2022-08-16T00:59:15.272Z,932.46
2022-08-16T01:00:14.141Z,932.49
2022-08-16T01:01:14.238Z,932.47
2022-08-16T01:02:30.217Z,932.42
2022-08-16T01:03:14.184Z,932.46
2022-08-16T01:04:29.125Z,932.51
2022-08-16T01:05:14.212Z,932.47
2022-08-16T01:06:40.186Z,932.50
2022-08-16T01:07:17.787Z,932.46
2022-08-16T01:08:35.259Z,932.46
2022-08-16T01:09:14.271Z,932.44
2022-08-16T01:10:16.425Z,932.42
2022-08-16T01:11:14.302Z,932.48
2022-08-16T01:12:21.769Z,932.47
2022-08-16T01:13:15.272Z,932.51
2022-08-16T01:14:14.344Z,932.51
2022-08-16T01:15:14.360Z,932.53
2022-08-16T01:16:14.375Z,932.54
2022-08-16T01:17:14.389Z,932.54
2022-08-16T01:18:39.003Z,932.55
2022-08-16T01:19:15.287Z,932.55
2022-08-16T01:20:24.011Z,932.60
2022-08-16T01:21:14.446Z,932.60
2022-08-16T01:22:49.850Z,932.60
2022-08-16T01:23:14.479Z,932.62
2022-08-16T01:24:51.429Z,932.57
2022-08-16T01:25:14.506Z,932.56
2022-08-16T01:26:34.134Z,932.58
2022-08-16T01:27:15.082Z,932.63
2022-08-16T01:28:19.595Z,932.63
2022-08-16T01:29:14.563Z,932.60
2022-08-16T01:30:20.328Z,932.61
2022-08-16T01:31:14.606Z,932.61
2022-08-16T01:32:14.607Z,932.62
2022-08-16T01:33:15.721Z,932.56
2022-08-16T01:34:25.049Z,932.57
2022-08-16T01:35:17.478Z,932.61
2022-08-16T01:36:14.668Z,932.63
2022-08-16T01:37:14.682Z,932.63
2022-08-16T01:38:19.757Z,932.61
2022-08-16T01:39:14.710Z,932.59
2022-08-16T01:40:15.461Z,932.61
2022-08-16T01:41:19.275Z,932.59
2022-08-16T01:42:14.753Z,932.60
2022-08-16T01:43:14.769Z,932.59
2022-08-16T01:44:14.782Z,932.62
2022-08-16T01:45:14.798Z,932.62
2022-08-16T01:46:37.457Z,932.60
2022-08-16T01:47:14.827Z,932.64
2022-08-16T01:48:19.373Z,932.67
2022-08-16T01:49:14.871Z,932.72
2022-08-16T01:50:41.759Z,932.69
2022-08-16T01:51:17.151Z,932.70
2022-08-16T01:52:27.984Z,932.73
2022-08-16T01:53:14.914Z,932.73
2022-08-16T01:54:15.477Z,932.75
2022-08-16T01:55:14.943Z,932.72
2022-08-16T01:56:24.608Z,932.75
2022-08-16T01:57:14.971Z,932.77
2022-08-16T01:58:14.986Z,932.77
2022-08-16T01:59:15.790Z,932.79
2022-08-16T02:00:19.395Z,932.77
2022-08-16T02:01:15.073Z,932.79
2022-08-16T02:02:27.487Z,932.78
2022-08-16T02:03:15.065Z,932.79
2022-08-16T02:04:15.075Z,932.75
2022-08-16T02:05:15.088Z,932.71
2022-08-16T02:06:15.104Z,932.73
2022-08-16T02:07:15.118Z,932.72
2022-08-16T02:08:33.644Z,932.73
2022-08-16T02:09:15.181Z,932.68
2022-08-16T02:10:15.161Z,932.67
2022-08-16T02:11:15.178Z,932.70
2022-08-16T02:12:43.557Z,932.71
2022-08-16T02:13:15.207Z,932.70
2022-08-16T02:14:18.626Z,932.75
2022-08-16T02:15:15.236Z,932.79
2022-08-16T02:16:18.442Z,932.78
2022-08-16T02:17:15.266Z,932.76
2022-08-16T02:18:18.455Z,932.81
2022-08-16T02:19:15.896Z,932.79
2022-08-16T02:20:15.311Z,932.85
2022-08-16T02:21:15.605Z,932.83
2022-08-16T02:22:34.798Z,932.81
2022-08-16T02:23:17.340Z,932.83
2022-08-16T02:24:31.452Z,932.79
2022-08-16T02:25:15.378Z,932.81
2022-08-16T02:26:15.857Z,932.84
2022-08-16T02:27:15.408Z,932.84
2022-08-16T02:28:17.422Z,932.80
2022-08-16T02:29:15.438Z,932.82
2022-08-16T02:30:37.904Z,932.84
2022-08-16T02:31:15.480Z,932.80
2022-08-16T02:33:02.565Z,932.80
2022-08-16T02:33:15.665Z,932.80
2022-08-16T02:34:15.510Z,932.81
2022-08-16T02:35:16.102Z,932.84
2022-08-16T02:36:47.147Z,932.84
2022-08-16T02:37:15.553Z,932.84
2022-08-16T02:38:15.568Z,932.86
2022-08-16T02:39:15.583Z,932.84
2022-08-16T02:40:16.161Z,932.86
2022-08-16T02:41:15.612Z,932.84
2022-08-16T02:42:15.626Z,932.82
2022-08-16T02:43:15.639Z,932.80
2022-08-16T02:44:15.656Z,932.77
2022-08-16T02:45:15.681Z,932.79
2022-08-16T02:46:15.684Z,932.75
2022-08-16T02:47:24.866Z,932.75
2022-08-16T02:48:28.235Z,932.74
2022-08-16T02:49:15.729Z,932.80
2022-08-16T02:50:54.088Z,932.81
2022-08-16T02:51:15.758Z,932.77
2022-08-16T02:52:24.394Z,932.76
2022-08-16T02:53:18.309Z,932.77
2022-08-16T02:54:16.787Z,932.81
2022-08-16T02:55:15.872Z,932.80
2022-08-16T02:56:16.073Z,932.85
2022-08-16T02:57:15.842Z,932.85
2022-08-16T02:58:15.858Z,932.85
2022-08-16T02:59:15.872Z,932.81
2022-08-16T03:00:34.455Z,932.82
2022-08-16T03:01:25.444Z,932.81
2022-08-16T03:02:16.157Z,932.84
2022-08-16T03:03:15.930Z,932.85
2022-08-16T03:04:49.503Z,932.85
2022-08-16T03:05:15.959Z,932.80
2022-08-16T03:06:41.543Z,932.78
2022-08-16T03:07:15.988Z,932.82
2022-08-16T03:08:51.125Z,932.79
2022-08-16T03:09:16.484Z,932.79
2022-08-16T03:10:16.033Z,932.79
2022-08-16T03:11:17.746Z,932.78
2022-08-16T03:12:16.588Z,932.79
2022-08-16T03:13:16.075Z,932.82
2022-08-16T03:14:21.452Z,932.84
2022-08-16T03:15:16.109Z,932.83
2022-08-16T03:16:38.249Z,932.85
2022-08-16T03:17:16.410Z,932.82
2022-08-16T03:18:18.770Z,932.83
2022-08-16T03:19:16.160Z,932.87
2022-08-16T03:20:16.175Z,932.93
2022-08-16T03:21:16.189Z,932.97
2022-08-16T03:22:19.431Z,932.97
2022-08-16T03:23:16.217Z,932.94
2022-08-16T03:24:28.376Z,932.92
2022-08-16T03:25:16.246Z,932.89
2022-08-16T03:26:16.262Z,932.89
2022-08-16T03:27:16.275Z,932.88
2022-08-16T03:28:17.174Z,932.85
2022-08-16T03:29:16.308Z,932.85
2022-08-16T03:30:17.943Z,932.84
2022-08-16T03:31:16.334Z,932.84
2022-08-16T03:32:16.366Z,932.87
2022-08-16T03:33:16.474Z,932.90
2022-08-16T03:34:16.396Z,932.92
2022-08-16T03:35:17.771Z,932.92
2022-08-16T03:36:29.899Z,932.93
2022-08-16T03:37:16.419Z,932.95
2022-08-16T03:38:33.121Z,932.94
2022-08-16T03:39:20.333Z,932.93
2022-08-16T03:40:31.847Z,932.94
2022-08-16T03:41:25.338Z,932.92
2022-08-16T03:42:20.463Z,932.99
2022-08-16T03:43:20.518Z,932.93
2022-08-16T03:44:40.815Z,932.92
2022-08-16T03:45:16.535Z,932.94
2022-08-16T03:46:47.311Z,932.94
2022-08-16T03:47:19.343Z,932.94
2022-08-16T03:48:18.150Z,932.92
2022-08-16T03:49:16.594Z,932.88
2022-08-16T03:50:26.079Z,932.88
2022-08-16T03:51:16.621Z,932.86
2022-08-16T03:52:16.642Z,932.87
2022-08-16T03:53:16.650Z,932.89
2022-08-16T03:54:16.665Z,932.89
2022-08-16T03:55:16.679Z,932.92
2022-08-16T03:56:19.812Z,932.92
2022-08-16T03:57:16.706Z,932.90
2022-08-16T03:58:16.722Z,932.86
2022-08-16T03:59:16.737Z,932.85
2022-08-16T04:00:35.017Z,932.86
2022-08-16T04:01:16.821Z,932.81
2022-08-16T04:02:22.415Z,932.77
2022-08-16T04:03:18.700Z,932.79
2022-08-16T04:04:17.566Z,932.81
2022-08-16T04:05:16.823Z,932.83
2022-08-16T04:06:17.053Z,932.80
2022-08-16T04:07:16.852Z,932.79
2022-08-16T04:08:22.752Z,932.75
2022-08-16T04:09:16.881Z,932.78
2022-08-16T04:10:36.023Z,932.76
2022-08-16T04:11:17.176Z,932.74
2022-08-16T04:12:54.536Z,932.74
2022-08-16T04:13:20.780Z,932.74
2022-08-16T04:14:32.402Z,932.72
2022-08-16T04:15:17.117Z,932.74
2022-08-16T04:16:27.416Z,932.70
2022-08-16T04:17:17.042Z,932.73
2022-08-16T04:18:17.008Z,932.66
2022-08-16T04:19:17.023Z,932.67
2022-08-16T04:20:31.346Z,932.58
2022-08-16T04:21:29.460Z,932.59
2022-08-16T04:22:17.578Z,932.60
2022-08-16T04:23:17.080Z,932.57
2022-08-16T04:24:17.100Z,932.55
2022-08-16T04:25:17.114Z,932.58
2022-08-16T04:26:17.347Z,932.52
2022-08-16T04:27:17.137Z,932.51
2022-08-16T04:28:51.943Z,932.54
2022-08-16T04:29:23.837Z,932.54
2022-08-16T04:30:32.215Z,932.48
2022-08-16T04:31:17.195Z,932.50
2022-08-16T04:32:17.207Z,932.48
2022-08-16T04:33:17.222Z,932.44
2022-08-16T04:34:17.237Z,932.40
2022-08-16T04:35:17.252Z,932.41
2022-08-16T04:36:20.122Z,932.41
2022-08-16T04:37:17.278Z,932.38
2022-08-16T04:38:21.232Z,932.39
2022-08-16T04:39:17.308Z,932.38
2022-08-16T04:40:20.651Z,932.39
2022-08-16T04:41:17.337Z,932.33
2022-08-16T04:42:17.351Z,932.28
2022-08-16T04:43:17.699Z,932.28
2022-08-16T04:44:31.071Z,932.28
2022-08-16T04:45:17.751Z,932.27
2022-08-16T04:47:00.209Z,932.24
2022-08-16T04:47:21.603Z,932.26
2022-08-16T04:48:21.719Z,932.24
2022-08-16T04:49:17.449Z,932.23
2022-08-16T04:50:18.029Z,932.29
2022-08-16T04:51:17.480Z,932.30
2022-08-16T04:52:33.135Z,932.30
2022-08-16T04:53:19.305Z,932.23
2022-08-16T04:54:19.437Z,932.20
2022-08-16T04:55:17.537Z,932.21
2022-08-16T04:56:17.553Z,932.20
2022-08-16T04:57:17.566Z,932.21
2022-08-16T04:58:43.959Z,932.24
2022-08-16T04:59:17.593Z,932.23
2022-08-16T05:00:30.679Z,932.25
2022-08-16T05:01:17.696Z,932.22
2022-08-16T05:02:40.894Z,932.24
2022-08-16T05:03:17.678Z,932.22
2022-08-16T05:04:19.289Z,932.25
2022-08-16T05:05:18.086Z,932.19
2022-08-16T05:06:17.693Z,932.20
2022-08-16T05:07:20.298Z,932.10
2022-08-16T05:08:28.026Z,932.14
2022-08-16T05:09:17.736Z,932.11
2022-08-16T05:10:20.087Z,932.10
2022-08-16T05:11:17.974Z,932.12
2022-08-16T05:12:22.083Z,932.11
2022-08-16T05:13:17.791Z,932.06
2022-08-16T05:14:20.198Z,932.01
2022-08-16T05:15:17.821Z,932.09
2022-08-16T05:16:21.821Z,932.12
2022-08-16T05:17:17.851Z,932.07
2022-08-16T05:18:21.979Z,932.07
2022-08-16T05:19:17.877Z,932.01
2022-08-16T05:20:38.964Z,932.02
2022-08-16T05:21:17.905Z,932.02
2022-08-16T05:22:18.249Z,932.04
2022-08-16T05:23:17.933Z,932.02
2022-08-16T05:24:22.171Z,931.99
2022-08-16T05:25:17.960Z,932.03
2022-08-16T05:26:20.330Z,932.02
2022-08-16T05:27:17.990Z,931.99
2022-08-16T05:28:18.004Z,931.94
2022-08-16T05:29:18.017Z,931.94
2022-08-16T05:30:35.275Z,931.91
2022-08-16T05:31:18.058Z,931.91
2022-08-16T05:32:32.630Z,931.93
2022-08-16T05:33:18.466Z,931.90
2022-08-16T05:34:19.638Z,931.88
2022-08-16T05:35:18.102Z,931.90
2022-08-16T05:36:20.890Z,931.88
2022-08-16T05:37:18.131Z,931.91
2022-08-16T05:38:32.717Z,931.89
2022-08-16T05:39:18.159Z,931.89
2022-08-16T05:40:18.696Z,931.87
2022-08-16T05:41:18.799Z,931.88
2022-08-16T05:42:19.681Z,931.88
2022-08-16T05:43:18.216Z,931.80
2022-08-16T05:44:23.903Z,931.80
2022-08-16T05:45:22.167Z,931.78
2022-08-16T05:46:30.502Z,931.76
2022-08-16T05:47:18.272Z,931.77
2022-08-16T05:48:18.287Z,931.79
2022-08-16T05:49:22.615Z,931.78
2022-08-16T05:50:19.287Z,931.75
2022-08-16T05:51:35.371Z,931.71
2022-08-16T05:52:18.343Z,931.73
2022-08-16T05:53:18.356Z,931.76
2022-08-16T05:54:25.035Z,931.74
2022-08-16T05:55:18.385Z,931.76
2022-08-16T05:56:19.633Z,931.74
2022-08-16T05:57:18.422Z,931.71
2022-08-16T05:58:31.558Z,931.68
2022-08-16T05:59:18.442Z,931.72
2022-08-16T06:00:22.535Z,931.68
2022-08-16T06:01:18.694Z,931.65
2022-08-16T06:02:18.483Z,931.66
2022-08-16T06:03:18.497Z,931.64
2022-08-16T06:04:35.036Z,931.71
2022-08-16T06:05:18.524Z,931.68
2022-08-16T06:06:28.182Z,931.57
2022-08-16T06:07:26.258Z,931.55
2022-08-16T06:08:32.060Z,931.57
2022-08-16T06:09:18.581Z,931.53
2022-08-16T06:10:32.483Z,931.57
2022-08-16T06:11:18.610Z,931.60
2022-08-16T06:12:26.415Z,931.59
2022-08-16T06:13:18.637Z,931.54
2022-08-16T06:14:18.654Z,931.58
2022-08-16T06:15:18.668Z,931.54
2022-08-16T06:16:18.881Z,931.58
2022-08-16T06:17:18.692Z,931.65
2022-08-16T06:18:18.708Z,931.65
2022-08-16T06:19:18.723Z,931.64
2022-08-16T06:20:23.952Z,931.66
2022-08-16T06:21:22.826Z,931.70
2022-08-16T06:22:19.423Z,931.72
2022-08-16T06:23:19.355Z,931.81
2022-08-16T06:24:53.642Z,931.89
2022-08-16T06:25:18.805Z,931.86
2022-08-16T06:26:18.823Z,931.84
2022-08-16T06:27:18.842Z,931.86
2022-08-16T06:28:35.566Z,931.86
2022-08-16T06:29:18.862Z,931.82
2022-08-16T06:30:19.754Z,931.83
2022-08-16T06:31:18.895Z,931.81
2022-08-16T06:32:27.567Z,931.85
2022-08-16T06:33:22.155Z,931.82
2022-08-16T06:34:55.555Z,931.84
2022-08-16T06:35:18.946Z,931.84
2022-08-16T06:36:21.774Z,931.80
2022-08-16T06:37:18.974Z,931.82
2022-08-16T06:38:32.315Z,931.77
2022-08-16T06:39:19.004Z,931.83
2022-08-16T06:40:19.069Z,931.83
2022-08-16T06:41:19.031Z,931.82
2022-08-16T06:42:19.108Z,931.82
2022-08-16T06:43:19.058Z,931.85
2022-08-16T06:44:21.135Z,931.85
2022-08-16T06:45:19.084Z,931.84
2022-08-16T06:46:19.100Z,931.82
2022-08-16T06:47:19.116Z,931.85
2022-08-16T06:48:19.129Z,931.90
2022-08-16T06:49:19.140Z,931.95
2022-08-16T06:50:22.082Z,931.95
2022-08-16T06:51:19.169Z,931.98
2022-08-16T06:52:59.979Z,931.97
2022-08-16T06:53:19.249Z,931.93
2022-08-16T06:54:19.214Z,931.96
2022-08-16T06:55:19.224Z,931.96
2022-08-16T06:56:23.112Z,931.94
2022-08-16T06:57:19.252Z,931.94
2022-08-16T06:58:22.237Z,931.94
2022-08-16T06:59:19.280Z,931.93
2022-08-16T07:00:24.468Z,931.92
2022-08-16T07:01:24.812Z,931.96
2022-08-16T07:02:33.411Z,931.98
2022-08-16T07:03:27.483Z,931.97
2022-08-16T07:04:31.834Z,932.00
2022-08-16T07:05:19.365Z,931.97
2022-08-16T07:06:19.377Z,932.05
2022-08-16T07:07:19.394Z,932.02
2022-08-16T07:08:19.406Z,932.03
2022-08-16T07:09:19.419Z,932.06
2022-08-16T07:10:19.433Z,932.03
2022-08-16T07:11:19.447Z,932.01
2022-08-16T07:12:19.466Z,932.06
2022-08-16T07:13:43.945Z,932.08
2022-08-16T07:14:24.703Z,932.08
2022-08-16T07:15:19.504Z,932.15
2022-08-16T07:16:20.456Z,932.13
2022-08-16T07:17:19.655Z,932.17
2022-08-16T07:18:19.544Z,932.16
2022-08-16T07:19:19.558Z,932.20
2022-08-16T07:20:34.923Z,932.17
2022-08-16T07:21:19.585Z,932.20
2022-08-16T07:22:37.874Z,932.27
2022-08-16T07:23:19.616Z,932.22
2022-08-16T07:24:29.622Z,932.19
2022-08-16T07:25:19.646Z,932.19
2022-08-16T07:26:25.252Z,932.24
2022-08-16T07:27:19.670Z,932.27
2022-08-16T07:28:20.678Z,932.23
2022-08-16T07:29:19.697Z,932.21
2022-08-16T07:30:39.320Z,932.28
2022-08-16T07:31:19.725Z,932.23
2022-08-16T07:32:19.740Z,932.22
2022-08-16T07:33:52.131Z,932.24
2022-08-16T07:34:19.767Z,932.23
2022-08-16T07:35:19.779Z,932.29
2022-08-16T07:36:22.130Z,932.27
2022-08-16T07:37:23.092Z,932.27
2022-08-16T07:38:31.814Z,932.28
2022-08-16T07:39:19.846Z,932.27
2022-08-16T07:40:24.883Z,932.31
2022-08-16T07:41:19.865Z,932.30
2022-08-16T07:42:20.284Z,932.32
2022-08-16T07:43:19.890Z,932.30
2022-08-16T07:44:19.905Z,932.31
2022-08-16T07:45:19.919Z,932.39
2022-08-16T07:46:38.548Z,932.37
2022-08-16T07:47:19.947Z,932.36
2022-08-16T07:48:19.962Z,932.35
2022-08-16T07:49:19.972Z,932.34
2022-08-16T07:50:56.185Z,932.36
2022-08-16T07:51:20.001Z,932.36
2022-08-16T07:52:20.651Z,932.39
2022-08-16T07:53:20.028Z,932.39
2022-08-16T07:54:21.095Z,932.36
2022-08-16T07:55:20.059Z,932.41
2022-08-16T07:56:20.072Z,932.37
2022-08-16T07:57:20.089Z,932.35
2022-08-16T07:58:34.377Z,932.39
2022-08-16T07:59:20.110Z,932.39
2022-08-16T08:00:20.126Z,932.35
2022-08-16T08:01:20.168Z,932.37
2022-08-16T08:02:21.053Z,932.36
2022-08-16T08:03:20.167Z,932.37
2022-08-16T08:04:20.181Z,932.36
2022-08-16T08:05:25.277Z,932.42
2022-08-16T08:06:20.208Z,932.41
2022-08-16T08:07:20.717Z,932.41
2022-08-16T08:08:51.448Z,932.43
2022-08-16T08:09:20.248Z,932.41
2022-08-16T08:10:29.380Z,932.43
2022-08-16T08:11:21.469Z,932.38
2022-08-16T08:12:32.695Z,932.43
2022-08-16T08:13:20.305Z,932.44
2022-08-16T08:14:29.670Z,932.42
2022-08-16T08:15:25.250Z,932.50
2022-08-16T08:16:20.886Z,932.50
2022-08-16T08:17:20.358Z,932.56
2022-08-16T08:18:28.903Z,932.58
2022-08-16T08:19:20.900Z,932.62
2022-08-16T08:20:26.403Z,932.62
2022-08-16T08:21:27.423Z,932.66
2022-08-16T08:22:22.317Z,932.68
2022-08-16T08:23:20.441Z,932.67
2022-08-16T08:24:20.459Z,932.67
2022-08-16T08:25:20.467Z,932.58
2022-08-16T08:26:20.483Z,932.56
2022-08-16T08:27:22.519Z,932.56
2022-08-16T08:28:20.512Z,932.53
2022-08-16T08:29:22.945Z,932.53
2022-08-16T08:30:51.760Z,932.52
2022-08-16T08:31:20.550Z,932.48
2022-08-16T08:32:58.775Z,932.39
2022-08-16T08:33:20.577Z,932.50
2022-08-16T08:34:20.593Z,932.46
2022-08-16T08:35:20.605Z,932.47
2022-08-16T08:36:22.201Z,932.50
2022-08-16T08:37:20.632Z,932.52
2022-08-16T08:38:45.668Z,932.49
2022-08-16T08:39:21.005Z,932.55
2022-08-16T08:40:24.300Z,932.61
2022-08-16T08:41:27.294Z,932.67
2022-08-16T08:42:26.735Z,932.68
2022-08-16T08:43:20.713Z,932.74
2022-08-16T08:44:29.312Z,932.71
2022-08-16T08:45:46.696Z,932.71
2022-08-16T08:46:21.757Z,932.67
2022-08-16T08:47:20.771Z,932.68
2022-08-16T08:48:34.312Z,932.74
2022-08-16T08:49:20.801Z,932.73
2022-08-16T08:50:31.693Z,932.72
2022-08-16T08:51:20.825Z,932.79
2022-08-16T08:52:34.942Z,932.82
2022-08-16T08:53:20.850Z,932.80
2022-08-16T08:54:20.863Z,932.81
2022-08-16T08:55:20.880Z,932.82
2022-08-16T08:56:22.967Z,932.80
2022-08-16T08:57:20.905Z,932.80
2022-08-16T08:58:20.919Z,932.80
2022-08-16T08:59:21.055Z,932.81
2022-08-16T09:00:21.487Z,932.75
2022-08-16T09:01:32.021Z,932.74
2022-08-16T09:02:20.974Z,932.74
2022-08-16T09:03:21.433Z,932.77
2022-08-16T09:04:21.053Z,932.83
2022-08-16T09:05:21.015Z,932.81
2022-08-16T09:06:21.028Z,932.81
2022-08-16T09:07:21.043Z,932.84
2022-08-16T09:08:22.112Z,932.84
2022-08-16T09:09:21.068Z,932.87
2022-08-16T09:10:21.368Z,932.88
2022-08-16T09:11:21.098Z,932.87
2022-08-16T09:12:35.796Z,932.88
2022-08-16T09:13:21.121Z,932.91
2022-08-16T09:14:24.172Z,932.89
2022-08-16T09:15:21.696Z,932.83
2022-08-16T09:17:02.393Z,932.86
2022-08-16T09:17:47.125Z,932.91
2022-08-16T09:18:26.615Z,932.84
2022-08-16T09:19:33.183Z,932.89
2022-08-16T09:20:23.395Z,932.89
2022-08-16T09:21:21.233Z,932.92
2022-08-16T09:22:21.340Z,932.95
2022-08-16T09:23:21.257Z,932.95
2022-08-16T09:24:46.682Z,932.86
2022-08-16T09:25:26.431Z,932.87
2022-08-16T09:26:45.464Z,932.85
2022-08-16T09:27:21.313Z,932.85
2022-08-16T09:29:13.328Z,932.89
2022-08-16T09:29:23.960Z,932.88
2022-08-16T09:30:33.537Z,932.85
2022-08-16T09:31:21.372Z,932.91
2022-08-16T09:32:28.610Z,932.94
2022-08-16T09:33:21.453Z,932.91
2022-08-16T09:34:21.411Z,932.94
2022-08-16T09:35:21.422Z,932.92
2022-08-16T09:36:32.574Z,932.92
2022-08-16T09:37:21.448Z,932.93
2022-08-16T09:38:31.605Z,932.98
2022-08-16T09:39:21.476Z,932.95
2022-08-16T09:40:32.507Z,932.95
2022-08-16T09:41:21.504Z,932.92
2022-08-16T09:42:21.515Z,932.96
2022-08-16T09:43:53.166Z,933.04
2022-08-16T09:45:09.198Z,933.09
2022-08-16T09:45:22.160Z,933.10
2022-08-16T09:46:33.505Z,933.10
2022-08-16T09:47:23.365Z,933.14
2022-08-16T09:48:43.936Z,933.15
2022-08-16T09:49:21.613Z,933.15
2022-08-16T09:50:22.597Z,933.17
2022-08-16T09:51:23.451Z,933.18
2022-08-16T09:52:22.265Z,933.12
2022-08-16T09:53:21.665Z,933.18
2022-08-16T09:54:21.681Z,933.18
2022-08-16T09:55:21.693Z,933.24
2022-08-16T09:56:21.707Z,933.27
2022-08-16T09:57:22.794Z,933.27
2022-08-16T09:58:37.643Z,933.27
2022-08-16T09:59:22.256Z,933.28
2022-08-16T10:00:44.188Z,933.27
2022-08-16T10:01:21.772Z,933.23
2022-08-16T10:02:27.412Z,933.22
2022-08-16T10:03:21.838Z,933.23
2022-08-16T10:04:31.579Z,933.25
2022-08-16T10:05:21.827Z,933.29
2022-08-16T10:06:21.838Z,933.35
2022-08-16T10:07:21.856Z,933.38
2022-08-16T10:08:26.427Z,933.37
2022-08-16T10:09:21.880Z,933.36
2022-08-16T10:10:30.614Z,933.39
2022-08-16T10:11:24.718Z,933.49
2022-08-16T10:12:21.922Z,933.55
2022-08-16T10:13:21.934Z,933.62
2022-08-16T10:14:24.608Z,933.65
2022-08-16T10:15:21.966Z,933.68
2022-08-16T10:16:22.325Z,933.68
2022-08-16T10:17:22.065Z,933.72
2022-08-16T10:18:56.247Z,933.74
2022-08-16T10:19:22.014Z,933.71
2022-08-16T10:20:22.029Z,933.67
2022-08-16T10:21:22.739Z,933.62
2022-08-16T10:22:22.928Z,933.61
2022-08-16T10:23:22.068Z,933.65
2022-08-16T10:24:28.476Z,933.64
2022-08-16T10:27:18.631Z,933.63
2022-08-16T10:27:21.945Z,933.66
2022-08-16T10:27:30.108Z,933.63
2022-08-16T10:28:31.935Z,933.59
2022-08-16T10:29:22.150Z,933.60
2022-08-16T10:30:25.793Z,933.65
2022-08-16T10:31:44.294Z,933.62
2022-08-16T10:32:22.190Z,933.64
2022-08-16T10:33:22.201Z,933.63
2022-08-16T10:34:31.118Z,933.66
2022-08-16T10:35:22.819Z,933.67
2022-08-16T10:36:39.075Z,933.69
2022-08-16T10:37:32.237Z,933.67
2022-08-16T10:38:27.022Z,933.69
2022-08-16T10:39:22.405Z,933.70
2022-08-16T10:40:28.967Z,933.70
2022-08-16T10:41:25.233Z,933.70
2022-08-16T10:42:22.322Z,933.69
2022-08-16T10:43:22.338Z,933.70
2022-08-16T10:44:22.349Z,933.67
2022-08-16T10:45:22.947Z,933.63
2022-08-16T10:46:39.246Z,933.71
2022-08-16T10:47:22.394Z,933.68
2022-08-16T10:48:27.389Z,933.66
2022-08-16T10:49:22.415Z,933.71
2022-08-16T10:50:22.430Z,933.73
2022-08-16T10:51:33.443Z,933.74
2022-08-16T10:52:24.366Z,933.73
2022-08-16T10:53:22.472Z,933.74
2022-08-16T10:54:29.657Z,933.77
2022-08-16T10:55:40.993Z,933.76
2022-08-16T10:56:51.734Z,933.78
2022-08-16T10:57:24.638Z,933.78
2022-08-16T10:58:22.539Z,933.78
2022-08-16T10:59:32.709Z,933.77
2022-08-16T11:00:23.051Z,933.80
2022-08-16T11:01:43.166Z,933.81
2022-08-16T11:03:37.749Z,933.84
2022-08-16T11:03:43.253Z,933.79
2022-08-16T11:05:22.705Z,933.85
2022-08-16T11:06:27.909Z,933.87
2022-08-16T11:08:35.173Z,933.88
2022-08-16T11:09:25.422Z,933.91
2022-08-16T11:11:22.713Z,933.93
2022-08-16T11:12:22.725Z,933.94
2022-08-16T11:14:22.753Z,933.94
2022-08-16T11:15:24.469Z,933.94
2022-08-16T11:16:26.522Z,933.95
2022-08-16T11:17:22.791Z,934.01
2022-08-16T11:19:04.824Z,934.04
2022-08-16T11:19:22.991Z,934.07
2022-08-16T11:20:41.154Z,934.12
2022-08-16T11:21:29.482Z,934.18
2022-08-16T11:22:41.884Z,934.16
2022-08-16T11:23:22.871Z,934.19
2022-08-16T11:24:41.453Z,934.13
2022-08-16T11:26:24.369Z,934.18
2022-08-16T11:27:32.574Z,934.19
2022-08-16T11:29:26.774Z,934.09
2022-08-16T11:30:24.228Z,934.11
2022-08-16T11:31:22.979Z,934.08
2022-08-16T11:32:30.046Z,934.03
2022-08-16T11:33:51.905Z,934.10
2022-08-16T11:34:23.019Z,934.08
2022-08-16T11:35:43.343Z,934.08
2022-08-16T11:36:25.003Z,934.07
2022-08-16T11:37:27.704Z,934.04
2022-08-16T11:38:46.333Z,934.04
2022-08-16T11:39:23.137Z,934.08
2022-08-16T11:40:32.306Z,934.02
2022-08-16T11:41:23.113Z,934.07
2022-08-16T11:42:29.594Z,934.06
2022-08-16T11:43:23.139Z,934.03
2022-08-16T11:44:45.283Z,934.01
2022-08-16T11:45:23.167Z,934.02
2022-08-16T11:46:44.879Z,934.12
2022-08-16T11:47:23.192Z,934.14
2022-08-16T11:48:23.233Z,934.14
2022-08-16T11:49:23.219Z,934.12
2022-08-16T11:50:23.236Z,934.16
2022-08-16T11:51:23.253Z,934.21
2022-08-16T11:52:23.262Z,934.26
2022-08-16T11:53:23.273Z,934.26
2022-08-16T11:54:33.287Z,934.29
2022-08-16T11:55:23.693Z,934.31
2022-08-16T11:56:29.930Z,934.37
2022-08-16T11:57:23.341Z,934.36
2022-08-16T11:58:23.341Z,934.43
2022-08-16T11:59:24.431Z,934.48
2022-08-16T12:00:33.502Z,934.48
2022-08-16T12:01:29.598Z,934.53
2022-08-16T12:02:32.173Z,934.59
2022-08-16T12:03:34.335Z,934.56
2022-08-16T12:04:23.503Z,934.64
2022-08-16T12:05:23.434Z,934.61
2022-08-16T12:06:30.375Z,934.64
2022-08-16T12:07:24.077Z,934.61
2022-08-16T12:08:26.069Z,934.63
2022-08-16T12:09:23.488Z,934.66
2022-08-16T12:10:23.501Z,934.70
2022-08-16T12:11:23.519Z,934.72
2022-08-16T12:12:23.916Z,934.76
2022-08-16T12:13:23.540Z,934.76
2022-08-16T12:14:23.554Z,934.75
2022-08-16T12:15:23.572Z,934.69
2022-08-16T12:16:23.583Z,934.71
2022-08-16T12:17:23.595Z,934.66
2022-08-16T12:18:23.607Z,934.65
2022-08-16T12:21:58.451Z,934.71
2022-08-16T12:22:18.614Z,934.70
2022-08-16T12:23:08.481Z,934.75
2022-08-16T12:24:08.496Z,934.73
2022-08-16T12:25:08.717Z,934.79
2022-08-16T12:26:10.517Z,934.79
2022-08-16T12:27:08.543Z,934.79
2022-08-16T12:28:08.568Z,934.83
2022-08-16T12:29:08.563Z,934.82
2022-08-16T12:30:08.574Z,934.82
2022-08-16T12:31:08.631Z,934.83
2022-08-16T12:32:36.002Z,934.84
2022-08-16T12:33:08.617Z,934.86
2022-08-16T12:34:08.627Z,934.84
2022-08-16T12:35:08.643Z,934.77
2022-08-16T12:36:09.906Z,934.78